Time;durP1;ratioP1;P1;durP2;ratioP2;P2;SDS_P1;SDS_P2;PMS_P1;PMS_P2;Temp;Humidity;BMP_temperature;BMP_pressure;BME280_temperature;BME280_humidity;BME280_pressure;Samples;Min_cycle;Max_cycle;Signal;HPM_P1;HPM_P2
2024/01/14 00:02:04;;;;;;;12.07;6.15;;;;;;;;;;5026645;28;41680;-62
2024/01/14 00:04:32;;;;;;;8.23;6.22;;;;;;;;;;5027578;28;42116;-62
2024/01/14 00:07:00;;;;;;;9.38;6.80;;;;;;;;;;5019777;28;41731;-62
2024/01/14 00:09:28;;;;;;;7.95;6.18;;;;;;;;;;5021056;28;41633;-62
2024/01/14 00:11:56;;;;;;;8.43;7.35;;;;;;;;;;5026524;28;41926;-62
2024/01/14 00:14:24;;;;;;;11.30;7.18;;;;;;;;;;5026383;28;42512;-62
2024/01/14 00:16:54;;;;;;;6.88;5.53;;;;;;;;;;5025692;28;43723;-62
2024/01/14 00:19:21;;;;;;;13.82;6.60;;;;;;;;;;5025664;28;41440;-62
2024/01/14 00:21:50;;;;;;;8.23;6.40;;;;;;;;;;5025281;28;42563;-62
2024/01/14 00:24:17;;;;;;;11.77;5.88;;;;;;;;;;5026371;28;42741;-62
2024/01/14 00:26:45;;;;;;;9.35;6.93;;;;;;;;;;5026091;28;40508;-62
2024/01/14 00:29:13;;;;;;;8.82;6.32;;;;;;;;;;5011308;28;42018;-62
2024/01/14 00:31:41;;;;;;;9.57;6.43;;;;;;;;;;4999486;28;39764;-62
2024/01/14 00:34:12;;;;;;;8.60;6.00;;;;;;;;;;5019598;28;41427;-62
2024/01/14 00:36:40;;;;;;;8.50;5.72;;;;;;;;;;5013877;28;42328;-62
2024/01/14 00:39:08;;;;;;;7.45;6.00;;;;;;;;;;5026321;28;39676;-62
2024/01/14 00:41:36;;;;;;;6.00;5.40;;;;;;;;;;5017373;28;41853;-63
2024/01/14 00:44:04;;;;;;;6.15;5.47;;;;;;;;;;5015944;28;41597;-62
2024/01/14 00:46:32;;;;;;;7.30;6.10;;;;;;;;;;5026560;28;40329;-62
2024/01/14 00:49:00;;;;;;;6.88;5.45;;;;;;;;;;5025064;28;40981;-62
2024/01/14 00:51:30;;;;;;;7.55;6.05;;;;;;;;;;5008626;28;40516;-62
2024/01/14 00:53:58;;;;;;;9.20;5.82;;;;;;;;;;5017063;28;41544;-62
2024/01/14 00:56:26;;;;;;;7.22;5.50;;;;;;;;;;5024952;28;41991;-62
2024/01/14 00:58:54;;;;;;;8.23;5.72;;;;;;;;;;5015509;28;41004;-62
2024/01/14 01:01:22;;;;;;;6.88;5.50;;;;;;;;;;5017923;28;42340;-62
2024/01/14 01:03:50;;;;;;;7.40;5.97;;;;;;;;;;5024232;28;42012;-62
2024/01/14 01:06:18;;;;;;;6.95;5.57;;;;;;;;;;5023542;28;40351;-62
2024/01/14 01:08:47;;;;;;;6.22;5.50;;;;;;;;;;5009176;28;41544;-62
2024/01/14 01:11:16;;;;;;;6.93;5.38;;;;;;;;;;5024202;28;39839;-62
2024/01/14 01:13:43;;;;;;;7.40;5.68;;;;;;;;;;5020751;28;41856;-62
2024/01/14 01:16:11;;;;;;;7.68;6.53;;;;;;;;;;5017723;28;42109;-62
2024/01/14 01:18:39;;;;;;;7.43;5.82;;;;;;;;;;5024470;28;41363;-62
2024/01/14 01:21:07;;;;;;;6.38;5.25;;;;;;;;;;5025635;28;42205;-62
2024/01/14 01:23:35;;;;;;;6.43;5.32;;;;;;;;;;5024331;28;42445;-62
2024/01/14 01:26:05;;;;;;;6.65;5.60;;;;;;;;;;5026105;28;40389;-62
2024/01/14 01:28:33;;;;;;;7.80;6.20;;;;;;;;;;5026433;28;41227;-62
2024/01/14 01:31:01;;;;;;;6.78;5.72;;;;;;;;;;5024995;28;43145;-62
2024/01/14 01:33:29;;;;;;;7.88;5.93;;;;;;;;;;5025948;28;42207;-62
2024/01/14 01:35:57;;;;;;;6.50;5.30;;;;;;;;;;5024527;28;42176;-62
2024/01/14 01:38:25;;;;;;;6.82;5.50;;;;;;;;;;5025441;28;40990;-62
2024/01/14 01:40:53;;;;;;;6.28;5.18;;;;;;;;;;5025270;28;42660;-62
2024/01/14 01:43:22;;;;;;;5.80;4.85;;;;;;;;;;5029016;28;42499;-62
2024/01/14 01:45:50;;;;;;;7.55;5.47;;;;;;;;;;5017934;28;40374;-62
2024/01/14 01:48:19;;;;;;;6.88;5.38;;;;;;;;;;5029529;28;41472;-62
2024/01/14 01:50:49;;;;;;;7.95;5.07;;;;;;;;;;5028844;28;41497;-62
2024/01/14 01:53:17;;;;;;;6.70;5.13;;;;;;;;;;5009183;28;39888;-62
2024/01/14 01:55:45;;;;;;;5.30;4.80;;;;;;;;;;5009328;28;42646;-63
2024/01/14 01:58:13;;;;;;;4.90;4.35;;;;;;;;;;5026103;28;42164;-62
2024/01/14 02:00:42;;;;;;;4.82;4.32;;;;;;;;;;5028307;28;41657;-62
2024/01/14 02:03:11;;;;;;;5.50;4.60;;;;;;;;;;5019363;28;42478;-63
2024/01/14 02:05:40;;;;;;;6.40;4.95;;;;;;;;;;5013063;28;40851;-62
2024/01/14 02:08:08;;;;;;;5.07;4.25;;;;;;;;;;5022029;28;42071;-62
2024/01/14 02:10:36;;;;;;;5.25;4.53;;;;;;;;;;5020576;28;42982;-62
2024/01/14 02:13:05;;;;;;;5.65;4.50;;;;;;;;;;5012108;28;41067;-62
2024/01/14 02:15:33;;;;;;;4.90;4.30;;;;;;;;;;5019335;28;41742;-62
2024/01/14 02:18:03;;;;;;;5.88;4.10;;;;;;;;;;5024461;28;40441;-62
2024/01/14 02:20:31;;;;;;;6.65;5.13;;;;;;;;;;5015626;28;41531;-62
2024/01/14 02:22:59;;;;;;;5.40;4.68;;;;;;;;;;5017019;28;42231;-62
2024/01/14 02:25:29;;;;;;;5.50;4.55;;;;;;;;;;5011476;28;39955;-62
2024/01/14 02:27:56;;;;;;;7.10;5.30;;;;;;;;;;5027596;28;41352;-62
2024/01/14 02:30:24;;;;;;;5.93;4.20;;;;;;;;;;5028571;28;41639;-62
2024/01/14 02:32:55;;;;;;;6.10;5.10;;;;;;;;;;5027542;28;41081;-62
2024/01/14 02:35:23;;;;;;;5.05;4.20;;;;;;;;;;5028902;28;41391;-62
2024/01/14 02:37:51;;;;;;;5.93;4.93;;;;;;;;;;5029245;28;33537;-62
2024/01/14 02:40:19;;;;;;;5.15;4.50;;;;;;;;;;5027542;28;41963;-62
2024/01/14 02:42:48;;;;;;;5.15;4.50;;;;;;;;;;5028066;28;43319;-62
2024/01/14 02:45:16;;;;;;;5.93;4.65;;;;;;;;;;5027013;28;40762;-62
2024/01/14 02:47:44;;;;;;;5.80;4.70;;;;;;;;;;5027731;28;41434;-62
2024/01/14 02:50:12;;;;;;;6.65;5.00;;;;;;;;;;5023152;28;41816;-63
2024/01/14 02:52:40;;;;;;;7.82;5.82;;;;;;;;;;5027786;28;40411;-62
2024/01/14 02:55:08;;;;;;;8.73;6.43;;;;;;;;;;5027037;28;42674;-62
2024/01/14 02:57:36;;;;;;;8.57;7.10;;;;;;;;;;5028154;28;43069;-62
2024/01/14 03:00:07;;;;;;;9.55;7.38;;;;;;;;;;5015096;28;41257;-62
2024/01/14 03:02:40;;;;;;;6.82;5.78;;;;;;;;;;5041573;28;20246;-62
2024/01/14 03:05:10;;;;;;;7.68;5.38;;;;;;;;;;5027656;28;40612;-62
2024/01/14 03:07:38;;;;;;;6.03;5.18;;;;;;;;;;5027644;28;41695;-62
2024/01/14 03:10:07;;;;;;;6.85;4.90;;;;;;;;;;5026484;28;43753;-62
2024/01/14 03:12:35;;;;;;;6.15;5.15;;;;;;;;;;5026083;28;41750;-62
2024/01/14 03:15:04;;;;;;;8.70;6.55;;;;;;;;;;5022318;28;41533;-62
2024/01/14 03:17:33;;;;;;;6.40;5.25;;;;;;;;;;5019035;28;41996;-62
2024/01/14 03:20:02;;;;;;;7.13;5.72;;;;;;;;;;5024639;28;40995;-62
2024/01/14 03:22:30;;;;;;;7.68;6.70;;;;;;;;;;5025782;28;42087;-62
2024/01/14 03:24:58;;;;;;;6.15;5.18;;;;;;;;;;5023297;28;40355;-62
2024/01/14 03:27:26;;;;;;;6.97;5.47;;;;;;;;;;5023651;28;39689;-62
2024/01/14 03:29:56;;;;;;;9.43;7.60;;;;;;;;;;5017331;28;41890;-62
2024/01/14 03:32:23;;;;;;;6.60;5.38;;;;;;;;;;5019710;28;41260;-62
2024/01/14 03:34:53;;;;;;;6.80;5.55;;;;;;;;;;5026388;28;42175;-62
2024/01/14 03:37:21;;;;;;;6.97;5.30;;;;;;;;;;5026721;28;42494;-62
2024/01/14 03:39:49;;;;;;;7.47;6.20;;;;;;;;;;5026338;28;39762;-62
2024/01/14 03:42:17;;;;;;;6.97;5.95;;;;;;;;;;5027555;28;42894;-62
2024/01/14 03:44:45;;;;;;;12.77;9.38;;;;;;;;;;5021959;28;40247;-61
2024/01/14 03:47:16;;;;;;;12.60;9.52;;;;;;;;;;5011197;28;41836;-62
2024/01/14 03:49:44;;;;;;;9.48;7.72;;;;;;;;;;5013660;28;41686;-62
2024/01/14 03:52:13;;;;;;;8.90;6.88;;;;;;;;;;5012529;28;40513;-62
2024/01/14 03:54:41;;;;;;;7.50;6.28;;;;;;;;;;5012468;28;42551;-61
2024/01/14 03:57:09;;;;;;;12.73;9.75;;;;;;;;;;5007780;28;42206;-62
2024/01/14 03:59:38;;;;;;;10.77;7.78;;;;;;;;;;5013402;28;39795;-62
2024/01/14 04:02:06;;;;;;;10.07;6.88;;;;;;;;;;5012484;28;42748;-62
2024/01/14 04:04:37;;;;;;;10.50;8.25;;;;;;;;;;5021825;28;43141;-62
2024/01/14 04:07:05;;;;;;;10.82;7.75;;;;;;;;;;5026352;28;42387;-62
2024/01/14 04:09:35;;;;;;;11.07;8.40;;;;;;;;;;5026840;28;42269;-62
2024/01/14 04:12:03;;;;;;;12.10;9.45;;;;;;;;;;5025175;28;39908;-62
2024/01/14 04:14:31;;;;;;;10.63;7.97;;;;;;;;;;5012136;28;42319;-62
2024/01/14 04:16:59;;;;;;;9.77;7.03;;;;;;;;;;5022778;28;42278;-62
2024/01/14 04:19:27;;;;;;;11.40;8.55;;;;;;;;;;5020487;28;40275;-62
2024/01/14 04:21:55;;;;;;;11.90;7.40;;;;;;;;;;5026641;28;42148;-62
2024/01/14 04:24:23;;;;;;;12.15;8.65;;;;;;;;;;5025489;28;42090;-62
2024/01/14 04:26:52;;;;;;;9.52;7.20;;;;;;;;;;5025385;28;41580;-62
2024/01/14 04:29:20;;;;;;;9.98;7.63;;;;;;;;;;5026323;28;41897;-62
2024/01/14 04:31:48;;;;;;;9.05;7.25;;;;;;;;;;5026251;28;39986;-63
2024/01/14 04:34:16;;;;;;;11.88;9.18;;;;;;;;;;5025088;28;41058;-62
2024/01/14 04:36:44;;;;;;;7.35;6.47;;;;;;;;;;5017173;28;41549;-62
2024/01/14 04:39:12;;;;;;;10.85;8.32;;;;;;;;;;5025487;28;39953;-62
2024/01/14 04:41:40;;;;;;;13.93;10.63;;;;;;;;;;5024673;28;41733;-62
2024/01/14 04:44:09;;;;;;;12.90;9.52;;;;;;;;;;5026559;28;41672;-62
2024/01/14 04:46:37;;;;;;;10.70;8.00;;;;;;;;;;5025801;28;39756;-62
2024/01/14 04:49:05;;;;;;;12.60;9.50;;;;;;;;;;5025857;28;42004;-62
2024/01/14 04:51:33;;;;;;;11.65;8.60;;;;;;;;;;5020036;28;41017;-62
2024/01/14 04:54:02;;;;;;;10.80;7.63;;;;;;;;;;5015569;28;42100;-62
2024/01/14 04:56:30;;;;;;;9.63;7.80;;;;;;;;;;5017963;28;41876;-62
2024/01/14 04:58:58;;;;;;;15.10;11.38;;;;;;;;;;5016090;28;40801;-62
2024/01/14 05:01:29;;;;;;;16.33;11.23;;;;;;;;;;5020969;28;41770;-62
2024/01/14 05:03:57;;;;;;;14.30;11.40;;;;;;;;;;5013755;28;41711;-62
2024/01/14 05:06:25;;;;;;;10.63;7.53;;;;;;;;;;5018721;28;41200;-62
2024/01/14 05:08:53;;;;;;;14.93;10.75;;;;;;;;;;5016775;28;41859;-62
2024/01/14 05:11:21;;;;;;;10.52;7.93;;;;;;;;;;5022181;28;41069;-62
2024/01/14 05:13:49;;;;;;;16.65;12.10;;;;;;;;;;5025554;28;42289;-62
2024/01/14 05:16:17;;;;;;;11.13;8.25;;;;;;;;;;5023863;28;43079;-62
2024/01/14 05:18:47;;;;;;;11.23;9.00;;;;;;;;;;5025437;28;41122;-62
2024/01/14 05:21:18;;;;;;;9.25;7.28;;;;;;;;;;5025011;28;41236;-62
2024/01/14 05:23:46;;;;;;;12.95;9.27;;;;;;;;;;5023662;28;43090;-62
2024/01/14 05:26:14;;;;;;;10.02;8.25;;;;;;;;;;5025381;28;40120;-62
2024/01/14 05:28:42;;;;;;;10.40;8.40;;;;;;;;;;5025160;28;42492;-62
2024/01/14 05:31:09;;;;;;;10.10;8.30;;;;;;;;;;5025655;28;42208;-62
2024/01/14 05:33:38;;;;;;;11.15;8.32;;;;;;;;;;5019800;28;41943;-62
2024/01/14 05:36:08;;;;;;;11.40;8.85;;;;;;;;;;5023316;28;42065;-62
2024/01/14 05:38:36;;;;;;;17.27;12.45;;;;;;;;;;5025694;28;39733;-62
2024/01/14 05:41:04;;;;;;;10.25;7.90;;;;;;;;;;5025362;28;41633;-62
2024/01/14 05:43:32;;;;;;;13.52;7.97;;;;;;;;;;5024564;28;41366;-62
2024/01/14 05:46:02;;;;;;;10.98;8.77;;;;;;;;;;5024972;28;41800;-62
2024/01/14 05:48:33;;;;;;;13.10;8.93;;;;;;;;;;5025529;28;40642;-62
2024/01/14 05:51:01;;;;;;;13.18;10.07;;;;;;;;;;5024222;28;42200;-62
2024/01/14 05:53:31;;;;;;;11.77;8.85;;;;;;;;;;5021311;28;41034;-62
2024/01/14 05:55:58;;;;;;;15.25;11.32;;;;;;;;;;5014632;28;42000;-62
2024/01/14 05:58:26;;;;;;;12.68;9.15;;;;;;;;;;5023520;28;40609;-61
2024/01/14 06:00:55;;;;;;;10.77;8.30;;;;;;;;;;5023795;28;41242;-62
2024/01/14 06:03:23;;;;;;;12.05;9.07;;;;;;;;;;5015297;28;42718;-62
2024/01/14 06:05:51;;;;;;;23.58;16.75;;;;;;;;;;5018253;28;41460;-62
2024/01/14 06:08:20;;;;;;;14.93;10.85;;;;;;;;;;5013757;28;42195;-62
2024/01/14 06:10:49;;;;;;;11.23;9.20;;;;;;;;;;5011403;28;42799;-62
2024/01/14 06:13:17;;;;;;;14.15;10.15;;;;;;;;;;5020178;28;40935;-62
2024/01/14 06:15:45;;;;;;;13.32;9.85;;;;;;;;;;5024439;28;41640;-63
2024/01/14 06:18:13;;;;;;;19.75;14.60;;;;;;;;;;5024239;28;40378;-62
2024/01/14 06:20:42;;;;;;;12.32;8.88;;;;;;;;;;5025039;28;42600;-62
2024/01/14 06:23:12;;;;;;;13.18;9.43;;;;;;;;;;5023438;28;43065;-62
2024/01/14 06:25:40;;;;;;;22.05;16.38;;;;;;;;;;5024306;28;40388;-62
2024/01/14 06:28:09;;;;;;;16.55;12.43;;;;;;;;;;5025382;28;41967;-62
2024/01/14 06:30:37;;;;;;;13.70;10.48;;;;;;;;;;5028200;28;41843;-62
2024/01/14 06:33:05;;;;;;;21.13;14.70;;;;;;;;;;5026419;28;40018;-62
2024/01/14 06:35:33;;;;;;;12.43;9.20;;;;;;;;;;5028503;28;42239;-62
2024/01/14 06:38:01;;;;;;;16.58;11.00;;;;;;;;;;5028271;28;42392;-62
2024/01/14 06:40:29;;;;;;;22.00;15.75;;;;;;;;;;5027308;28;41679;-62
2024/01/14 06:43:08;;;;;;;13.30;9.70;;;;;;;;;;5028236;28;43150;-62
2024/01/14 06:45:37;;;;;;;20.42;15.05;;;;;;;;;;5028457;28;40650;-62
2024/01/14 06:48:05;;;;;;;12.27;9.65;;;;;;;;;;5025631;28;41469;-62
2024/01/14 06:50:33;;;;;;;17.35;12.25;;;;;;;;;;5027811;28;41700;-62
2024/01/14 06:53:01;;;;;;;11.85;9.65;;;;;;;;;;5026047;28;40433;-61
2024/01/14 06:55:29;;;;;;;16.20;10.80;;;;;;;;;;5024365;28;41273;-62
2024/01/14 06:57:57;;;;;;;12.65;9.52;;;;;;;;;;5017916;28;42245;-62
2024/01/14 07:00:25;;;;;;;13.73;10.05;;;;;;;;;;5026585;28;41277;-62
2024/01/14 07:02:54;;;;;;;12.85;9.52;;;;;;;;;;5026665;28;41716;-62
2024/01/14 07:05:22;;;;;;;10.80;8.57;;;;;;;;;;5028237;28;40081;-62
2024/01/14 07:07:50;;;;;;;12.65;9.80;;;;;;;;;;5027284;28;42243;-62
2024/01/14 07:10:20;;;;;;;11.85;9.32;;;;;;;;;;5027764;28;42156;-63
2024/01/14 07:12:50;;;;;;;13.43;9.38;;;;;;;;;;5019292;28;40295;-62
2024/01/14 07:15:18;;;;;;;11.10;9.20;;;;;;;;;;5012875;28;41227;-64
2024/01/14 07:17:46;;;;;;;11.52;9.07;;;;;;;;;;5012991;28;42574;-62
2024/01/14 07:20:27;;;;;;;13.60;9.32;;;;;;;;;;5018778;28;40924;-62
2024/01/14 07:22:55;;;;;;;17.00;12.43;;;;;;;;;;5025620;28;42029;-62
2024/01/14 07:25:43;;;;;;;14.38;11.55;;;;;;;;;;5026626;28;41421;-62
2024/01/14 07:28:11;;;;;;;16.25;11.50;;;;;;;;;;5027388;28;41316;-63
2024/01/14 07:30:39;;;;;;;11.85;8.88;;;;;;;;;;5014229;28;41928;-62
2024/01/14 07:33:07;;;;;;;13.25;10.02;;;;;;;;;;5026403;28;40374;-62
2024/01/14 07:35:37;;;;;;;12.73;9.38;;;;;;;;;;5026114;28;41064;-62
2024/01/14 07:38:05;;;;;;;11.70;8.82;;;;;;;;;;5023465;28;42173;-62
2024/01/14 07:40:32;;;;;;;16.42;11.95;;;;;;;;;;5018909;28;41437;-62
2024/01/14 07:43:00;;;;;;;10.85;8.57;;;;;;;;;;5025963;28;42174;-62
2024/01/14 07:45:28;;;;;;;10.07;8.02;;;;;;;;;;5027995;28;41841;-62
2024/01/14 07:47:57;;;;;;;10.75;8.65;;;;;;;;;;5027573;28;41684;-62
2024/01/14 07:50:25;;;;;;;13.18;9.73;;;;;;;;;;5025352;28;41771;-62
2024/01/14 07:52:55;;;;;;;10.43;8.57;;;;;;;;;;5023029;28;40801;-62
2024/01/14 07:55:23;;;;;;;20.08;13.63;;;;;;;;;;5026955;28;41091;-62
2024/01/14 07:57:51;;;;;;;10.65;8.65;;;;;;;;;;5025380;28;43117;-62
2024/01/14 08:00:19;;;;;;;15.38;11.20;;;;;;;;;;5014957;28;40911;-62
2024/01/14 08:02:47;;;;;;;11.75;9.13;;;;;;;;;;5026880;28;41925;-63
2024/01/14 08:05:15;;;;;;;12.13;9.18;;;;;;;;;;5025592;28;41252;-62
2024/01/14 08:07:43;;;;;;;13.05;9.43;;;;;;;;;;5017368;28;42256;-62
2024/01/14 08:10:12;;;;;;;10.00;8.27;;;;;;;;;;5024374;28;41905;-62
2024/01/14 08:12:40;;;;;;;10.50;8.32;;;;;;;;;;5026461;28;40617;-63
2024/01/14 08:15:09;;;;;;;9.68;7.55;;;;;;;;;;5025948;28;42161;-62
2024/01/14 08:17:39;;;;;;;11.25;8.43;;;;;;;;;;5025645;28;42115;-62
2024/01/14 08:20:10;;;;;;;11.18;8.77;;;;;;;;;;5013676;28;40305;-62
2024/01/14 08:22:39;;;;;;;12.90;10.32;;;;;;;;;;5018271;28;42975;-62
2024/01/14 08:25:09;;;;;;;14.00;9.77;;;;;;;;;;5020572;28;42131;-62
2024/01/14 08:27:39;;;;;;;16.58;12.15;;;;;;;;;;5024325;28;40282;-62
2024/01/14 08:30:09;;;;;;;16.88;12.82;;;;;;;;;;5025376;28;41998;-62
2024/01/14 08:32:37;;;;;;;12.27;9.48;;;;;;;;;;5025459;28;40521;-62
2024/01/14 08:35:06;;;;;;;10.50;8.52;;;;;;;;;;5026710;28;41635;-62
2024/01/14 08:37:34;;;;;;;12.05;9.15;;;;;;;;;;5025741;28;42229;-62
2024/01/14 08:40:02;;;;;;;12.70;10.27;;;;;;;;;;5026369;28;39938;-62
2024/01/14 08:42:30;;;;;;;13.57;8.75;;;;;;;;;;5026258;28;41268;-64
2024/01/14 08:45:00;;;;;;;13.15;9.82;;;;;;;;;;5026076;28;41903;-64
2024/01/14 08:47:28;;;;;;;11.35;8.98;;;;;;;;;;5025812;28;40428;-64
2024/01/14 08:49:56;;;;;;;11.95;8.95;;;;;;;;;;5023746;28;41450;-64
2024/01/14 08:52:25;;;;;;;24.35;17.63;;;;;;;;;;5017194;28;41448;-67
2024/01/14 08:54:56;;;;;;;22.77;15.93;;;;;;;;;;5009832;28;41061;-68
2024/01/14 08:57:24;;;;;;;27.77;20.50;;;;;;;;;;5013399;28;42555;-67
2024/01/14 08:59:52;;;;;;;17.75;12.88;;;;;;;;;;5008195;28;41459;-67
2024/01/14 09:02:21;;;;;;;21.60;16.38;;;;;;;;;;5006711;28;42018;-67
2024/01/14 09:04:49;;;;;;;17.20;10.90;;;;;;;;;;5014665;28;42682;-68
2024/01/14 09:07:17;;;;;;;16.20;11.15;;;;;;;;;;5022398;28;40513;-66
2024/01/14 09:09:45;;;;;;;20.58;14.73;;;;;;;;;;5016027;28;41667;-67
2024/01/14 09:12:13;;;;;;;23.73;17.63;;;;;;;;;;5019620;28;42043;-67
2024/01/14 09:14:41;;;;;;;21.80;14.77;;;;;;;;;;5017841;28;42718;-67
2024/01/14 09:17:09;;;;;;;26.65;18.60;;;;;;;;;;5019113;28;42139;-67
2024/01/14 09:19:39;;;;;;;26.50;17.92;;;;;;;;;;5024449;28;40196;-67
2024/01/14 09:22:07;;;;;;;22.35;16.00;;;;;;;;;;5013061;28;42102;-67
2024/01/14 09:24:35;;;;;;;25.85;18.05;;;;;;;;;;5016022;28;42619;-72
2024/01/14 09:27:04;;;;;;;17.02;12.50;;;;;;;;;;5013388;28;40072;-72
2024/01/14 09:29:32;;;;;;;20.92;15.48;;;;;;;;;;5018235;28;41597;-72
2024/01/14 09:32:07;;;;;;;19.73;15.00;;;;;;;;;;5026201;28;42084;-72
2024/01/14 09:34:35;;;;;;;22.20;15.05;;;;;;;;;;5018404;28;42009;-72
2024/01/14 09:37:04;;;;;;;20.42;13.70;;;;;;;;;;5017961;28;43731;-72
2024/01/14 09:39:33;;;;;;;26.02;18.30;;;;;;;;;;5015695;28;40107;-72
2024/01/14 09:42:04;;;;;;;29.48;18.27;;;;;;;;;;5024000;28;41688;-72
2024/01/14 09:44:32;;;;;;;21.58;15.90;;;;;;;;;;5019275;28;41609;-72
2024/01/14 09:47:00;;;;;;;27.13;19.83;;;;;;;;;;5015039;28;39854;-72
2024/01/14 09:49:28;;;;;;;19.73;14.18;;;;;;;;;;5018386;28;41335;-72
2024/01/14 09:51:56;;;;;;;20.75;15.35;;;;;;;;;;5025618;28;43093;-77
2024/01/14 09:54:26;;;;;;;15.95;11.98;;;;;;;;;;5017767;28;40031;-68
2024/01/14 09:56:54;;;;;;;28.55;20.00;;;;;;;;;;5018467;28;42155;-66
2024/01/14 09:59:22;;;;;;;22.77;16.30;;;;;;;;;;5014661;28;41587;-69
2024/01/14 10:01:50;;;;;;;25.73;18.85;;;;;;;;;;5013932;28;42359;-67
2024/01/14 10:04:18;;;;;;;21.17;15.20;;;;;;;;;;5021495;28;42138;-68
2024/01/14 10:06:46;;;;;;;29.20;21.65;;;;;;;;;;5015295;28;40986;-67
2024/01/14 10:09:14;;;;;;;24.92;17.42;;;;;;;;;;5015260;28;41674;-70
2024/01/14 10:11:43;;;;;;;22.73;15.88;;;;;;;;;;5021865;28;42566;-71
2024/01/14 10:14:11;;;;;;;24.23;17.02;;;;;;;;;;5025656;28;41594;-70
2024/01/14 10:16:39;;;;;;;25.00;16.95;;;;;;;;;;5028799;28;41644;-70
2024/01/14 10:19:22;;;;;;;14.65;11.40;;;;;;;;;;5025366;28;40109;-70
2024/01/14 10:21:50;;;;;;;32.47;22.58;;;;;;;;;;5027823;28;41366;-69
2024/01/14 10:24:38;;;;;;;23.65;15.95;;;;;;;;;;5015525;28;41777;-68
2024/01/14 10:27:10;;;;;;;21.50;13.85;;;;;;;;;;5021903;28;40501;-68
2024/01/14 10:29:39;;;;;;;22.88;16.55;;;;;;;;;;5016320;28;41101;-69
2024/01/14 10:32:08;;;;;;;25.15;18.25;;;;;;;;;;5013032;28;41785;-68
2024/01/14 10:34:36;;;;;;;27.15;18.13;;;;;;;;;;5018247;28;40054;-68
2024/01/14 10:37:04;;;;;;;25.50;16.63;;;;;;;;;;5013330;28;41437;-69
2024/01/14 10:39:32;;;;;;;19.88;13.85;;;;;;;;;;5016118;28;43256;-70
2024/01/14 10:42:00;;;;;;;22.27;14.82;;;;;;;;;;5011550;28;40924;-70
2024/01/14 10:44:30;;;;;;;21.70;16.58;;;;;;;;;;5011928;28;43339;-69
2024/01/14 10:47:01;;;;;;;27.95;18.70;;;;;;;;;;5026004;28;41638;-69
2024/01/14 10:49:32;;;;;;;22.08;15.82;;;;;;;;;;5015033;28;41422;-69
2024/01/14 10:52:01;;;;;;;23.92;16.45;;;;;;;;;;5014549;28;40962;-68
2024/01/14 10:54:30;;;;;;;20.50;14.27;;;;;;;;;;5012184;28;41288;-68
2024/01/14 10:57:00;;;;;;;16.75;12.82;;;;;;;;;;5017316;28;42601;-68
2024/01/14 10:59:28;;;;;;;21.60;15.57;;;;;;;;;;5013829;28;42613;-68
2024/01/14 11:01:57;;;;;;;27.38;16.63;;;;;;;;;;5017993;28;40519;-69
2024/01/14 11:04:25;;;;;;;19.50;12.23;;;;;;;;;;5019073;28;42255;-68
2024/01/14 11:06:55;;;;;;;21.30;16.02;;;;;;;;;;5021288;28;40157;-69
2024/01/14 11:09:23;;;;;;;18.13;13.93;;;;;;;;;;5023428;28;42002;-69
2024/01/14 11:11:52;;;;;;;21.27;15.48;;;;;;;;;;5028057;28;42086;-68
2024/01/14 11:14:21;;;;;;;27.98;19.73;;;;;;;;;;5026193;28;40420;-69
2024/01/14 11:16:51;;;;;;;23.50;16.58;;;;;;;;;;5020200;28;42047;-70
2024/01/14 11:19:21;;;;;;;24.27;15.50;;;;;;;;;;5023857;28;41523;-70
2024/01/14 11:22:09;;;;;;;20.83;14.68;;;;;;;;;;5015532;28;40391;-73
2024/01/14 11:24:56;;;;;;;19.52;14.85;;;;;;;;;;5025173;28;41992;-73
2024/01/14 11:27:25;;;;;;;22.95;16.10;;;;;;;;;;5019357;28;41129;-72
2024/01/14 11:29:52;;;;;;;25.50;17.80;;;;;;;;;;5022594;28;42159;-71
2024/01/14 11:32:21;;;;;;;24.27;14.55;;;;;;;;;;5015977;28;42072;-67
2024/01/14 11:34:57;;;;;;;24.48;17.60;;;;;;;;;;5018305;28;41383;-71
2024/01/14 11:37:44;;;;;;;17.38;13.75;;;;;;;;;;5015624;28;41433;-69
2024/01/14 11:40:17;;;;;;;18.15;13.52;;;;;;;;;;5017700;28;41183;-69
2024/01/14 11:42:45;;;;;;;16.13;12.18;;;;;;;;;;5021760;28;40329;-69
2024/01/14 11:45:14;;;;;;;21.73;16.77;;;;;;;;;;5010199;28;41692;-68
2024/01/14 11:47:43;;;;;;;31.25;19.52;;;;;;;;;;5008887;28;40937;-70
2024/01/14 11:50:14;;;;;;;17.02;12.65;;;;;;;;;;5026827;28;41559;-71
2024/01/14 11:52:42;;;;;;;16.80;11.88;;;;;;;;;;5024776;28;42981;-68
2024/01/14 11:55:14;;;;;;;13.30;9.30;;;;;;;;;;5026126;28;41891;-69
2024/01/14 11:57:42;;;;;;;15.50;11.52;;;;;;;;;;5023355;28;42235;-67
2024/01/14 12:00:10;;;;;;;20.23;13.10;;;;;;;;;;5022586;28;43079;-70
2024/01/14 12:02:38;;;;;;;12.75;9.15;;;;;;;;;;5021460;28;40436;-69
2024/01/14 12:05:16;;;;;;;21.20;16.02;;;;;;;;;;5017835;28;41371;-68
2024/01/14 12:07:44;;;;;;;14.00;9.90;;;;;;;;;;5020496;28;42101;-69
2024/01/14 12:10:13;;;;;;;20.85;14.00;;;;;;;;;;5020611;28;42036;-69
2024/01/14 12:12:41;;;;;;;21.30;14.25;;;;;;;;;;5015221;28;41598;-70
2024/01/14 12:15:09;;;;;;;20.08;14.32;;;;;;;;;;5025828;28;41104;-68
2024/01/14 12:17:37;;;;;;;24.70;17.90;;;;;;;;;;5019910;28;41072;-70
2024/01/14 12:20:08;;;;;;;17.77;12.95;;;;;;;;;;5026602;28;43042;-68
2024/01/14 12:22:37;;;;;;;18.90;13.60;;;;;;;;;;5025923;28;40286;-69
2024/01/14 12:25:05;;;;;;;18.65;14.45;;;;;;;;;;5026512;28;42268;-69
2024/01/14 12:27:37;;;;;;;25.42;18.13;;;;;;;;;;5017152;28;43384;-68
2024/01/14 12:30:06;;;;;;;16.25;12.05;;;;;;;;;;5019565;28;38893;-68
2024/01/14 12:32:34;;;;;;;20.10;13.85;;;;;;;;;;5025907;28;42084;-68
2024/01/14 12:35:02;;;;;;;25.92;15.02;;;;;;;;;;5026351;28;40496;-67
2024/01/14 12:37:30;;;;;;;19.35;12.88;;;;;;;;;;5018586;28;41606;-67
2024/01/14 12:40:00;;;;;;;17.88;12.20;;;;;;;;;;5020870;28;41925;-67
2024/01/14 12:42:28;;;;;;;24.83;16.30;;;;;;;;;;5016174;28;41043;-67
2024/01/14 12:44:56;;;;;;;20.83;13.65;;;;;;;;;;5019211;28;41083;-77
2024/01/14 12:47:24;;;;;;;19.17;10.45;;;;;;;;;;5020255;28;41607;-74
2024/01/14 12:49:54;;;;;;;24.38;17.77;;;;;;;;;;5025963;28;40205;-78
2024/01/14 12:52:22;;;;;;;18.65;12.07;;;;;;;;;;5022484;28;42226;-78
2024/01/14 12:54:50;;;;;;;22.40;14.68;;;;;;;;;;5023851;28;40178;-67
2024/01/14 12:57:19;;;;;;;20.10;14.68;;;;;;;;;;5026015;28;41190;-67
2024/01/14 12:59:52;;;;;;;19.17;13.55;;;;;;;;;;5025366;28;42712;-67
2024/01/14 13:02:20;;;;;;;23.15;16.83;;;;;;;;;;5023776;28;40533;-69
2024/01/14 13:04:49;;;;;;;18.60;13.35;;;;;;;;;;5021570;28;41548;-67
2024/01/14 13:07:17;;;;;;;26.75;18.08;;;;;;;;;;5024812;28;41738;-68
2024/01/14 13:09:45;;;;;;;21.23;14.80;;;;;;;;;;5019903;28;42076;-67
2024/01/14 13:12:13;;;;;;;24.67;17.70;;;;;;;;;;5016563;28;41771;-67
2024/01/14 13:14:42;;;;;;;24.13;15.40;;;;;;;;;;5025606;28;32622;-67
2024/01/14 13:17:10;;;;;;;15.35;11.25;;;;;;;;;;5026012;28;41780;-67
2024/01/14 13:19:39;;;;;;;19.13;12.05;;;;;;;;;;5026054;28;41492;-67
2024/01/14 13:22:07;;;;;;;18.23;13.57;;;;;;;;;;5023920;28;40718;-67
2024/01/14 13:24:38;;;;;;;22.45;15.05;;;;;;;;;;5026684;28;41316;-67
2024/01/14 13:27:07;;;;;;;22.23;16.20;;;;;;;;;;5025352;28;42689;-67
2024/01/14 13:29:35;;;;;;;26.85;18.30;;;;;;;;;;5012828;28;41722;-67
2024/01/14 13:32:04;;;;;;;21.67;15.55;;;;;;;;;;5024957;28;42626;-67
2024/01/14 13:34:32;;;;;;;17.98;13.25;;;;;;;;;;5023895;28;42133;-67
2024/01/14 13:37:01;;;;;;;21.10;15.35;;;;;;;;;;5021849;28;42135;-67
2024/01/14 13:39:29;;;;;;;17.08;12.02;;;;;;;;;;5019896;28;42027;-67
2024/01/14 13:41:57;;;;;;;15.13;11.50;;;;;;;;;;5025132;28;40138;-67
2024/01/14 13:44:25;;;;;;;21.48;14.98;;;;;;;;;;5011283;28;41094;-67
2024/01/14 13:46:55;;;;;;;23.20;15.02;;;;;;;;;;5025562;28;42168;-67
2024/01/14 13:49:24;;;;;;;25.65;17.70;;;;;;;;;;5023858;28;40507;-67
2024/01/14 13:51:53;;;;;;;17.42;12.60;;;;;;;;;;5025191;28;41408;-67
2024/01/14 13:54:21;;;;;;;24.45;14.02;;;;;;;;;;5025182;28;42278;-67
2024/01/14 13:56:50;;;;;;;23.15;15.57;;;;;;;;;;5011073;28;40967;-67
2024/01/14 13:59:19;;;;;;;20.65;15.07;;;;;;;;;;5024744;28;41985;-67
2024/01/14 14:01:47;;;;;;;20.38;15.32;;;;;;;;;;5025581;28;40509;-67
2024/01/14 14:04:15;;;;;;;15.95;11.02;;;;;;;;;;5023599;28;42569;-67
2024/01/14 14:06:52;;;;;;;19.52;15.38;;;;;;;;;;5014912;28;42557;-67
2024/01/14 14:09:20;;;;;;;21.83;15.60;;;;;;;;;;5024944;28;41113;-68
2024/01/14 14:11:48;;;;;;;16.52;11.98;;;;;;;;;;5025591;28;41681;-67
2024/01/14 14:14:16;;;;;;;15.88;11.63;;;;;;;;;;5024344;28;43101;-67
2024/01/14 14:16:44;;;;;;;23.38;15.25;;;;;;;;;;5024455;28;39421;-67
2024/01/14 14:19:12;;;;;;;12.73;10.13;;;;;;;;;;5025578;28;41183;-67
2024/01/14 14:21:41;;;;;;;14.30;11.45;;;;;;;;;;5021911;28;41029;-67
2024/01/14 14:24:27;;;;;;;21.10;14.82;;;;;;;;;;5023142;28;41436;-67
2024/01/14 14:26:55;;;;;;;20.70;14.80;;;;;;;;;;5024184;28;42940;-67
2024/01/14 14:29:23;;;;;;;19.48;13.60;;;;;;;;;;5012364;28;41465;-68
2024/01/14 14:31:53;;;;;;;14.85;11.23;;;;;;;;;;5015195;28;42657;-67
2024/01/14 14:34:23;;;;;;;14.52;10.68;;;;;;;;;;5019952;28;41809;-67
2024/01/14 14:36:51;;;;;;;22.70;14.90;;;;;;;;;;5016072;28;40276;-68